sensor_id;sensor_type;location;lat;lon;timestamp;temperature;humidity
6672;DHT22;3372;48.690;12.362;2022-08-20T00:00:13;20.00;53.50
6672;DHT22;3372;48.690;12.362;2022-08-20T00:02:42;19.90;54.30
6672;DHT22;3372;48.690;12.362;2022-08-20T00:05:08;19.80;55.40
6672;DHT22;3372;48.690;12.362;2022-08-20T00:07:33;19.80;55.70
6672;DHT22;3372;48.690;12.362;2022-08-20T00:09:59;19.90;56.10
6672;DHT22;3372;48.690;12.362;2022-08-20T00:12:25;19.80;58.30
6672;DHT22;3372;48.690;12.362;2022-08-20T00:14:50;19.80;58.30
6672;DHT22;3372;48.690;12.362;2022-08-20T00:17:16;19.80;58.30
6672;DHT22;3372;48.690;12.362;2022-08-20T00:19:41;19.80;58.70
6672;DHT22;3372;48.690;12.362;2022-08-20T00:22:07;19.80;58.30
6672;DHT22;3372;48.690;12.362;2022-08-20T00:24:32;19.60;59.60
6672;DHT22;3372;48.690;12.362;2022-08-20T00:26:59;19.70;60.80
6672;DHT22;3372;48.690;12.362;2022-08-20T00:29:24;19.60;62.60
6672;DHT22;3372;48.690;12.362;2022-08-20T00:31:50;19.50;65.80
6672;DHT22;3372;48.690;12.362;2022-08-20T00:34:16;19.50;69.70
6672;DHT22;3372;48.690;12.362;2022-08-20T00:36:42;19.50;69.90
6672;DHT22;3372;48.690;12.362;2022-08-20T00:39:08;19.60;69.40
6672;DHT22;3372;48.690;12.362;2022-08-20T00:41:33;19.70;70.90
6672;DHT22;3372;48.690;12.362;2022-08-20T00:46:37;19.60;71.20
6672;DHT22;3372;48.690;12.362;2022-08-20T00:49:04;19.60;70.20
6672;DHT22;3372;48.690;12.362;2022-08-20T00:51:43;19.60;70.50
6672;DHT22;3372;48.690;12.362;2022-08-20T00:56:41;19.60;70.80
6672;DHT22;3372;48.690;12.362;2022-08-20T00:59:13;19.40;71.70
6672;DHT22;3372;48.690;12.362;2022-08-20T01:01:40;19.40;73.30
6672;DHT22;3372;48.690;12.362;2022-08-20T01:04:06;19.50;73.20
6672;DHT22;3372;48.690;12.362;2022-08-20T01:06:32;19.50;73.40
6672;DHT22;3372;48.690;12.362;2022-08-20T01:08:58;19.60;72.60
6672;DHT22;3372;48.690;12.362;2022-08-20T01:11:27;19.50;72.30
6672;DHT22;3372;48.690;12.362;2022-08-20T01:13:59;19.40;73.20
6672;DHT22;3372;48.690;12.362;2022-08-20T01:16:28;19.40;73.70
6672;DHT22;3372;48.690;12.362;2022-08-20T01:18:57;19.40;74.20
6672;DHT22;3372;48.690;12.362;2022-08-20T01:21:25;19.50;74.50
6672;DHT22;3372;48.690;12.362;2022-08-20T01:24:19;19.40;73.60
6672;DHT22;3372;48.690;12.362;2022-08-20T01:26:47;19.30;75.10
6672;DHT22;3372;48.690;12.362;2022-08-20T01:29:15;19.40;75.20
6672;DHT22;3372;48.690;12.362;2022-08-20T01:31:42;19.40;74.70
6672;DHT22;3372;48.690;12.362;2022-08-20T01:34:12;19.40;75.40
6672;DHT22;3372;48.690;12.362;2022-08-20T01:36:47;19.40;74.30
6672;DHT22;3372;48.690;12.362;2022-08-20T01:39:17;19.40;74.60
6672;DHT22;3372;48.690;12.362;2022-08-20T01:44:14;19.40;74.00
6672;DHT22;3372;48.690;12.362;2022-08-20T01:46:43;19.30;74.20
6672;DHT22;3372;48.690;12.362;2022-08-20T01:49:30;19.30;75.00
6672;DHT22;3372;48.690;12.362;2022-08-20T01:51:59;19.30;75.10
6672;DHT22;3372;48.690;12.362;2022-08-20T01:54:26;19.30;73.80
6672;DHT22;3372;48.690;12.362;2022-08-20T01:57:10;19.30;73.60
6672;DHT22;3372;48.690;12.362;2022-08-20T01:59:37;19.30;74.80
6672;DHT22;3372;48.690;12.362;2022-08-20T02:02:03;19.30;75.40
6672;DHT22;3372;48.690;12.362;2022-08-20T02:04:29;19.30;74.30
6672;DHT22;3372;48.690;12.362;2022-08-20T02:06:58;19.30;73.60
6672;DHT22;3372;48.690;12.362;2022-08-20T02:09:26;19.30;72.90
6672;DHT22;3372;48.690;12.362;2022-08-20T02:11:52;19.40;73.00
6672;DHT22;3372;48.690;12.362;2022-08-20T02:14:18;19.30;73.20
6672;DHT22;3372;48.690;12.362;2022-08-20T02:16:45;19.20;73.20
6672;DHT22;3372;48.690;12.362;2022-08-20T02:19:21;19.20;73.60
6672;DHT22;3372;48.690;12.362;2022-08-20T02:21:50;19.20;75.10
6672;DHT22;3372;48.690;12.362;2022-08-20T02:24:17;19.00;73.90
6672;DHT22;3372;48.690;12.362;2022-08-20T02:26:43;19.20;73.60
6672;DHT22;3372;48.690;12.362;2022-08-20T02:29:12;19.20;73.90
6672;DHT22;3372;48.690;12.362;2022-08-20T02:31:39;19.20;73.40
6672;DHT22;3372;48.690;12.362;2022-08-20T02:34:07;19.30;73.90
6672;DHT22;3372;48.690;12.362;2022-08-20T02:36:34;19.30;72.50
6672;DHT22;3372;48.690;12.362;2022-08-20T02:39:07;19.30;73.50
6672;DHT22;3372;48.690;12.362;2022-08-20T02:41:34;19.30;73.20
6672;DHT22;3372;48.690;12.362;2022-08-20T02:44:00;19.30;73.40
6672;DHT22;3372;48.690;12.362;2022-08-20T02:46:26;19.30;72.70
6672;DHT22;3372;48.690;12.362;2022-08-20T02:48:53;19.30;71.80
6672;DHT22;3372;48.690;12.362;2022-08-20T02:51:19;19.30;72.70
6672;DHT22;3372;48.690;12.362;2022-08-20T02:53:44;19.30;72.60
6672;DHT22;3372;48.690;12.362;2022-08-20T02:56:10;19.30;72.20
6672;DHT22;3372;48.690;12.362;2022-08-20T02:58:38;19.30;72.10
6672;DHT22;3372;48.690;12.362;2022-08-20T03:01:08;19.30;71.60
6672;DHT22;3372;48.690;12.362;2022-08-20T03:03:36;19.30;71.80
6672;DHT22;3372;48.690;12.362;2022-08-20T03:06:02;19.30;70.60
6672;DHT22;3372;48.690;12.362;2022-08-20T03:08:28;19.10;71.40
6672;DHT22;3372;48.690;12.362;2022-08-20T03:10:54;19.20;71.80
6672;DHT22;3372;48.690;12.362;2022-08-20T03:13:21;19.10;72.10
6672;DHT22;3372;48.690;12.362;2022-08-20T03:15:53;19.10;71.70
6672;DHT22;3372;48.690;12.362;2022-08-20T03:18:19;19.20;72.20
6672;DHT22;3372;48.690;12.362;2022-08-20T03:20:46;19.20;71.30
6672;DHT22;3372;48.690;12.362;2022-08-20T03:23:13;19.20;71.30
6672;DHT22;3372;48.690;12.362;2022-08-20T03:25:39;19.20;71.90
6672;DHT22;3372;48.690;12.362;2022-08-20T03:28:05;19.30;70.50
6672;DHT22;3372;48.690;12.362;2022-08-20T03:30:31;19.30;70.00
6672;DHT22;3372;48.690;12.362;2022-08-20T03:32:57;19.30;70.50
6672;DHT22;3372;48.690;12.362;2022-08-20T03:35:25;19.30;70.50
6672;DHT22;3372;48.690;12.362;2022-08-20T03:37:51;19.30;70.20
6672;DHT22;3372;48.690;12.362;2022-08-20T03:40:21;19.30;70.20
6672;DHT22;3372;48.690;12.362;2022-08-20T03:42:47;19.30;70.90
6672;DHT22;3372;48.690;12.362;2022-08-20T03:45:13;19.30;70.70
6672;DHT22;3372;48.690;12.362;2022-08-20T03:47:40;19.30;70.50
6672;DHT22;3372;48.690;12.362;2022-08-20T03:50:08;19.40;71.20
6672;DHT22;3372;48.690;12.362;2022-08-20T03:52:35;19.40;70.70
6672;DHT22;3372;48.690;12.362;2022-08-20T03:55:02;19.40;70.60
6672;DHT22;3372;48.690;12.362;2022-08-20T03:57:28;19.40;70.50
6672;DHT22;3372;48.690;12.362;2022-08-20T03:59:54;19.40;71.70
6672;DHT22;3372;48.690;12.362;2022-08-20T04:02:19;19.40;70.80
6672;DHT22;3372;48.690;12.362;2022-08-20T04:04:45;19.40;71.30
6672;DHT22;3372;48.690;12.362;2022-08-20T04:07:12;19.30;70.90
6672;DHT22;3372;48.690;12.362;2022-08-20T04:09:39;19.40;71.00
6672;DHT22;3372;48.690;12.362;2022-08-20T04:12:05;19.30;71.00
6672;DHT22;3372;48.690;12.362;2022-08-20T04:14:32;19.30;72.00
6672;DHT22;3372;48.690;12.362;2022-08-20T04:17:07;19.30;71.80
6672;DHT22;3372;48.690;12.362;2022-08-20T04:19:35;19.30;71.40
6672;DHT22;3372;48.690;12.362;2022-08-20T04:22:00;19.30;71.80
6672;DHT22;3372;48.690;12.362;2022-08-20T04:24:26;19.40;71.60
6672;DHT22;3372;48.690;12.362;2022-08-20T04:26:52;19.40;70.60
6672;DHT22;3372;48.690;12.362;2022-08-20T04:29:20;19.50;71.50
6672;DHT22;3372;48.690;12.362;2022-08-20T04:31:46;19.40;70.80
6672;DHT22;3372;48.690;12.362;2022-08-20T04:34:12;19.50;70.40
6672;DHT22;3372;48.690;12.362;2022-08-20T04:36:37;19.50;70.60
6672;DHT22;3372;48.690;12.362;2022-08-20T04:39:04;19.50;70.60
6672;DHT22;3372;48.690;12.362;2022-08-20T04:41:30;19.60;69.90
6672;DHT22;3372;48.690;12.362;2022-08-20T04:43:55;19.60;69.80
6672;DHT22;3372;48.690;12.362;2022-08-20T04:46:23;19.60;70.00
6672;DHT22;3372;48.690;12.362;2022-08-20T04:48:50;19.60;70.60
6672;DHT22;3372;48.690;12.362;2022-08-20T04:51:15;19.50;70.90
6672;DHT22;3372;48.690;12.362;2022-08-20T04:53:41;19.30;72.50
6672;DHT22;3372;48.690;12.362;2022-08-20T04:56:08;19.30;73.50
6672;DHT22;3372;48.690;12.362;2022-08-20T04:58:35;19.30;73.10
6672;DHT22;3372;48.690;12.362;2022-08-20T05:01:05;19.30;73.20
6672;DHT22;3372;48.690;12.362;2022-08-20T05:03:31;19.30;74.60
6672;DHT22;3372;48.690;12.362;2022-08-20T05:05:58;19.30;75.20
6672;DHT22;3372;48.690;12.362;2022-08-20T05:08:24;19.40;74.20
6672;DHT22;3372;48.690;12.362;2022-08-20T05:10:51;19.20;77.30
6672;DHT22;3372;48.690;12.362;2022-08-20T05:13:18;19.30;77.20
6672;DHT22;3372;48.690;12.362;2022-08-20T05:15:44;19.30;78.40
6672;DHT22;3372;48.690;12.362;2022-08-20T05:18:16;19.30;79.00
6672;DHT22;3372;48.690;12.362;2022-08-20T05:20:43;19.40;77.90
6672;DHT22;3372;48.690;12.362;2022-08-20T05:23:12;19.50;77.90
6672;DHT22;3372;48.690;12.362;2022-08-20T05:25:40;19.40;78.60
6672;DHT22;3372;48.690;12.362;2022-08-20T05:28:21;19.40;78.30
6672;DHT22;3372;48.690;12.362;2022-08-20T05:30:48;19.30;80.50
6672;DHT22;3372;48.690;12.362;2022-08-20T05:33:16;19.30;80.40
6672;DHT22;3372;48.690;12.362;2022-08-20T05:35:44;19.40;80.80
6672;DHT22;3372;48.690;12.362;2022-08-20T05:38:13;19.40;79.60
6672;DHT22;3372;48.690;12.362;2022-08-20T05:40:40;19.30;82.10
6672;DHT22;3372;48.690;12.362;2022-08-20T05:43:07;19.50;80.90
6672;DHT22;3372;48.690;12.362;2022-08-20T05:45:35;19.50;81.00
6672;DHT22;3372;48.690;12.362;2022-08-20T05:48:12;19.40;82.30
6672;DHT22;3372;48.690;12.362;2022-08-20T05:50:40;19.40;83.70
6672;DHT22;3372;48.690;12.362;2022-08-20T05:53:07;19.30;84.80
6672;DHT22;3372;48.690;12.362;2022-08-20T05:55:33;19.40;86.40
6672;DHT22;3372;48.690;12.362;2022-08-20T05:58:04;19.50;84.10
6672;DHT22;3372;48.690;12.362;2022-08-20T06:00:31;19.60;84.90
6672;DHT22;3372;48.690;12.362;2022-08-20T06:02:57;19.50;86.00
6672;DHT22;3372;48.690;12.362;2022-08-20T06:05:41;19.60;85.10
6672;DHT22;3372;48.690;12.362;2022-08-20T06:08:08;19.60;85.00
6672;DHT22;3372;48.690;12.362;2022-08-20T06:10:35;19.70;84.00
6672;DHT22;3372;48.690;12.362;2022-08-20T06:13:01;19.60;84.50
6672;DHT22;3372;48.690;12.362;2022-08-20T06:15:28;19.60;85.80
6672;DHT22;3372;48.690;12.362;2022-08-20T06:17:53;19.60;85.30
6672;DHT22;3372;48.690;12.362;2022-08-20T06:20:19;19.70;84.60
6672;DHT22;3372;48.690;12.362;2022-08-20T06:22:44;19.80;83.30
6672;DHT22;3372;48.690;12.362;2022-08-20T06:25:10;19.60;85.50
6672;DHT22;3372;48.690;12.362;2022-08-20T06:27:40;19.60;85.90
6672;DHT22;3372;48.690;12.362;2022-08-20T06:30:08;19.60;84.00
6672;DHT22;3372;48.690;12.362;2022-08-20T06:32:34;19.60;86.90
6672;DHT22;3372;48.690;12.362;2022-08-20T06:35:02;19.60;86.90
6672;DHT22;3372;48.690;12.362;2022-08-20T06:37:28;19.80;84.60
6672;DHT22;3372;48.690;12.362;2022-08-20T06:39:58;19.80;84.10
6672;DHT22;3372;48.690;12.362;2022-08-20T06:42:24;19.80;84.50
6672;DHT22;3372;48.690;12.362;2022-08-20T06:44:49;19.80;84.50
6672;DHT22;3372;48.690;12.362;2022-08-20T06:47:17;19.80;85.00
6672;DHT22;3372;48.690;12.362;2022-08-20T06:49:42;20.00;84.00
6672;DHT22;3372;48.690;12.362;2022-08-20T06:52:08;19.90;84.90
6672;DHT22;3372;48.690;12.362;2022-08-20T06:54:34;19.90;86.70
6672;DHT22;3372;48.690;12.362;2022-08-20T06:57:01;20.00;85.50
6672;DHT22;3372;48.690;12.362;2022-08-20T06:59:27;20.10;84.60
6672;DHT22;3372;48.690;12.362;2022-08-20T07:01:53;20.00;83.60
6672;DHT22;3372;48.690;12.362;2022-08-20T07:04:25;20.00;85.70
6672;DHT22;3372;48.690;12.362;2022-08-20T07:06:52;19.90;86.70
6672;DHT22;3372;48.690;12.362;2022-08-20T07:09:20;19.70;86.60
6672;DHT22;3372;48.690;12.362;2022-08-20T07:11:47;19.70;87.40
6672;DHT22;3372;48.690;12.362;2022-08-20T07:14:15;19.80;86.90
6672;DHT22;3372;48.690;12.362;2022-08-20T07:16:41;19.80;87.40
6672;DHT22;3372;48.690;12.362;2022-08-20T07:19:07;20.00;87.00
6672;DHT22;3372;48.690;12.362;2022-08-20T07:21:33;20.00;86.30
6672;DHT22;3372;48.690;12.362;2022-08-20T07:23:59;20.10;84.80
6672;DHT22;3372;48.690;12.362;2022-08-20T07:26:25;20.10;85.40
6672;DHT22;3372;48.690;12.362;2022-08-20T07:28:51;20.20;85.10
6672;DHT22;3372;48.690;12.362;2022-08-20T07:31:17;20.20;85.10
6672;DHT22;3372;48.690;12.362;2022-08-20T07:34:02;20.20;86.20
6672;DHT22;3372;48.690;12.362;2022-08-20T07:36:28;20.20;85.70
6672;DHT22;3372;48.690;12.362;2022-08-20T07:38:54;20.30;84.70
6672;DHT22;3372;48.690;12.362;2022-08-20T07:41:19;20.20;87.10
6672;DHT22;3372;48.690;12.362;2022-08-20T07:43:46;20.30;86.50
6672;DHT22;3372;48.690;12.362;2022-08-20T07:46:17;20.40;85.20
6672;DHT22;3372;48.690;12.362;2022-08-20T07:48:45;20.40;86.60
6672;DHT22;3372;48.690;12.362;2022-08-20T07:51:13;20.30;86.20
6672;DHT22;3372;48.690;12.362;2022-08-20T07:53:41;20.40;85.80
6672;DHT22;3372;48.690;12.362;2022-08-20T07:56:10;20.30;86.80
6672;DHT22;3372;48.690;12.362;2022-08-20T07:58:38;20.20;89.20
6672;DHT22;3372;48.690;12.362;2022-08-20T08:01:06;20.30;87.70
6672;DHT22;3372;48.690;12.362;2022-08-20T08:03:32;20.30;88.00
6672;DHT22;3372;48.690;12.362;2022-08-20T08:05:58;20.30;88.70
6672;DHT22;3372;48.690;12.362;2022-08-20T08:08:26;20.50;87.90
6672;DHT22;3372;48.690;12.362;2022-08-20T08:10:57;20.50;86.90
6672;DHT22;3372;48.690;12.362;2022-08-20T08:13:25;20.40;89.30
6672;DHT22;3372;48.690;12.362;2022-08-20T08:15:54;20.50;87.60
6672;DHT22;3372;48.690;12.362;2022-08-20T08:18:26;20.50;88.60
6672;DHT22;3372;48.690;12.362;2022-08-20T08:20:52;20.50;88.80
6672;DHT22;3372;48.690;12.362;2022-08-20T08:23:22;20.40;89.50
6672;DHT22;3372;48.690;12.362;2022-08-20T08:25:49;20.50;89.50
6672;DHT22;3372;48.690;12.362;2022-08-20T08:28:19;20.40;90.10
6672;DHT22;3372;48.690;12.362;2022-08-20T08:30:46;20.50;90.30
6672;DHT22;3372;48.690;12.362;2022-08-20T08:33:25;20.30;90.90
6672;DHT22;3372;48.690;12.362;2022-08-20T08:36:00;20.30;92.20
6672;DHT22;3372;48.690;12.362;2022-08-20T08:38:28;20.40;92.00
6672;DHT22;3372;48.690;12.362;2022-08-20T08:40:57;20.40;91.30
6672;DHT22;3372;48.690;12.362;2022-08-20T08:43:25;20.50;91.10
6672;DHT22;3372;48.690;12.362;2022-08-20T08:46:06;20.20;92.00
6672;DHT22;3372;48.690;12.362;2022-08-20T08:48:36;20.40;91.70
6672;DHT22;3372;48.690;12.362;2022-08-20T08:51:04;20.30;91.90
6672;DHT22;3372;48.690;12.362;2022-08-20T08:53:39;20.40;92.70
6672;DHT22;3372;48.690;12.362;2022-08-20T08:56:06;20.30;93.70
6672;DHT22;3372;48.690;12.362;2022-08-20T08:58:33;20.30;94.00
6672;DHT22;3372;48.690;12.362;2022-08-20T09:01:19;20.30;95.40
6672;DHT22;3372;48.690;12.362;2022-08-20T09:03:48;20.40;95.40
6672;DHT22;3372;48.690;12.362;2022-08-20T09:06:18;20.40;94.50
6672;DHT22;3372;48.690;12.362;2022-08-20T09:08:48;20.50;93.60
6672;DHT22;3372;48.690;12.362;2022-08-20T09:11:16;20.60;93.60
6672;DHT22;3372;48.690;12.362;2022-08-20T09:13:43;20.70;93.20
6672;DHT22;3372;48.690;12.362;2022-08-20T09:16:10;20.70;93.20
6672;DHT22;3372;48.690;12.362;2022-08-20T09:18:36;20.40;93.30
6672;DHT22;3372;48.690;12.362;2022-08-20T09:21:01;20.50;94.20
6672;DHT22;3372;48.690;12.362;2022-08-20T09:23:27;20.50;93.70
6672;DHT22;3372;48.690;12.362;2022-08-20T09:25:53;20.40;93.00
6672;DHT22;3372;48.690;12.362;2022-08-20T09:28:18;20.40;93.70
6672;DHT22;3372;48.690;12.362;2022-08-20T09:30:44;20.40;93.60
6672;DHT22;3372;48.690;12.362;2022-08-20T09:33:10;20.50;93.40
6672;DHT22;3372;48.690;12.362;2022-08-20T09:35:35;20.30;93.60
6672;DHT22;3372;48.690;12.362;2022-08-20T09:38:02;20.40;94.20
6672;DHT22;3372;48.690;12.362;2022-08-20T09:40:28;20.30;94.70
6672;DHT22;3372;48.690;12.362;2022-08-20T09:42:54;20.50;94.20
6672;DHT22;3372;48.690;12.362;2022-08-20T09:45:19;20.40;94.30
6672;DHT22;3372;48.690;12.362;2022-08-20T09:47:45;20.50;93.30
6672;DHT22;3372;48.690;12.362;2022-08-20T09:50:10;20.50;93.80
6672;DHT22;3372;48.690;12.362;2022-08-20T09:52:46;20.50;93.30
6672;DHT22;3372;48.690;12.362;2022-08-20T09:55:23;20.60;93.20
6672;DHT22;3372;48.690;12.362;2022-08-20T09:57:49;20.40;93.20
6672;DHT22;3372;48.690;12.362;2022-08-20T10:00:16;20.40;93.10
6672;DHT22;3372;48.690;12.362;2022-08-20T10:02:43;20.30;94.00
6672;DHT22;3372;48.690;12.362;2022-08-20T10:05:10;20.40;93.30
6672;DHT22;3372;48.690;12.362;2022-08-20T10:07:37;20.40;93.40
6672;DHT22;3372;48.690;12.362;2022-08-20T10:10:04;20.50;93.30
6672;DHT22;3372;48.690;12.362;2022-08-20T10:12:30;20.50;93.20
6672;DHT22;3372;48.690;12.362;2022-08-20T10:14:56;20.60;93.10
6672;DHT22;3372;48.690;12.362;2022-08-20T10:17:22;20.50;92.80
6672;DHT22;3372;48.690;12.362;2022-08-20T10:19:47;20.50;93.80
6672;DHT22;3372;48.690;12.362;2022-08-20T10:22:13;20.60;93.10
6672;DHT22;3372;48.690;12.362;2022-08-20T10:24:38;20.60;93.60
6672;DHT22;3372;48.690;12.362;2022-08-20T10:27:04;20.70;93.00
6672;DHT22;3372;48.690;12.362;2022-08-20T10:29:30;20.50;93.70
6672;DHT22;3372;48.690;12.362;2022-08-20T10:31:56;20.50;93.40
6672;DHT22;3372;48.690;12.362;2022-08-20T10:34:23;20.50;93.20
6672;DHT22;3372;48.690;12.362;2022-08-20T10:36:49;20.30;94.70
6672;DHT22;3372;48.690;12.362;2022-08-20T10:39:14;20.40;94.10
6672;DHT22;3372;48.690;12.362;2022-08-20T10:41:40;20.40;94.20
6672;DHT22;3372;48.690;12.362;2022-08-20T10:44:06;20.30;94.20
6672;DHT22;3372;48.690;12.362;2022-08-20T10:46:33;20.40;94.10
6672;DHT22;3372;48.690;12.362;2022-08-20T10:48:58;20.30;95.20
6672;DHT22;3372;48.690;12.362;2022-08-20T10:51:24;20.40;95.10
6672;DHT22;3372;48.690;12.362;2022-08-20T10:53:50;20.40;94.80
6672;DHT22;3372;48.690;12.362;2022-08-20T10:56:15;20.30;95.10
6672;DHT22;3372;48.690;12.362;2022-08-20T10:58:41;20.40;94.80
6672;DHT22;3372;48.690;12.362;2022-08-20T11:01:07;20.20;96.00
6672;DHT22;3372;48.690;12.362;2022-08-20T11:03:33;20.20;97.30
6672;DHT22;3372;48.690;12.362;2022-08-20T11:05:59;20.10;98.80
6672;DHT22;3372;48.690;12.362;2022-08-20T11:08:24;20.20;99.90
6672;DHT22;3372;48.690;12.362;2022-08-20T11:10:50;20.30;99.30
6672;DHT22;3372;48.690;12.362;2022-08-20T11:13:16;20.30;99.90
6672;DHT22;3372;48.690;12.362;2022-08-20T11:15:42;20.20;99.90
6672;DHT22;3372;48.690;12.362;2022-08-20T11:18:09;20.20;99.90
6672;DHT22;3372;48.690;12.362;2022-08-20T11:20:35;20.20;99.90
6672;DHT22;3372;48.690;12.362;2022-08-20T11:23:02;20.30;99.90
6672;DHT22;3372;48.690;12.362;2022-08-20T11:25:28;20.20;99.90
6672;DHT22;3372;48.690;12.362;2022-08-20T11:27:54;20.20;99.90
6672;DHT22;3372;48.690;12.362;2022-08-20T11:30:23;20.20;99.90
6672;DHT22;3372;48.690;12.362;2022-08-20T11:32:50;20.20;99.90
6672;DHT22;3372;48.690;12.362;2022-08-20T11:35:16;20.30;99.90
6672;DHT22;3372;48.690;12.362;2022-08-20T11:37:43;20.30;99.90
6672;DHT22;3372;48.690;12.362;2022-08-20T11:40:09;20.00;99.90
6672;DHT22;3372;48.690;12.362;2022-08-20T11:42:37;20.10;99.90
6672;DHT22;3372;48.690;12.362;2022-08-20T11:45:04;20.20;99.90
6672;DHT22;3372;48.690;12.362;2022-08-20T11:47:31;20.40;99.90
6672;DHT22;3372;48.690;12.362;2022-08-20T11:49:59;20.20;99.90
6672;DHT22;3372;48.690;12.362;2022-08-20T11:52:26;20.30;99.90
6672;DHT22;3372;48.690;12.362;2022-08-20T11:54:52;20.30;99.90
6672;DHT22;3372;48.690;12.362;2022-08-20T11:57:27;20.20;99.90
6672;DHT22;3372;48.690;12.362;2022-08-20T11:59:54;20.20;99.90
6672;DHT22;3372;48.690;12.362;2022-08-20T12:02:20;20.30;99.90
6672;DHT22;3372;48.690;12.362;2022-08-20T12:04:47;20.40;99.90
6672;DHT22;3372;48.690;12.362;2022-08-20T12:07:18;20.40;99.90
6672;DHT22;3372;48.690;12.362;2022-08-20T12:09:44;20.30;99.90
6672;DHT22;3372;48.690;12.362;2022-08-20T12:12:10;20.40;99.90
6672;DHT22;3372;48.690;12.362;2022-08-20T12:14:36;20.20;99.90
6672;DHT22;3372;48.690;12.362;2022-08-20T12:17:17;20.40;99.90
6672;DHT22;3372;48.690;12.362;2022-08-20T12:19:46;20.50;99.90
6672;DHT22;3372;48.690;12.362;2022-08-20T12:22:12;20.50;99.90
6672;DHT22;3372;48.690;12.362;2022-08-20T12:24:38;20.60;99.90
6672;DHT22;3372;48.690;12.362;2022-08-20T12:27:23;20.30;99.90
6672;DHT22;3372;48.690;12.362;2022-08-20T12:29:50;20.60;99.90
6672;DHT22;3372;48.690;12.362;2022-08-20T12:32:22;20.60;99.90
6672;DHT22;3372;48.690;12.362;2022-08-20T12:34:48;20.80;99.90
6672;DHT22;3372;48.690;12.362;2022-08-20T12:37:16;20.70;99.90
6672;DHT22;3372;48.690;12.362;2022-08-20T12:39:44;20.50;99.90
6672;DHT22;3372;48.690;12.362;2022-08-20T12:42:11;20.50;99.90
6672;DHT22;3372;48.690;12.362;2022-08-20T12:44:37;20.60;99.90
6672;DHT22;3372;48.690;12.362;2022-08-20T12:47:24;20.50;99.90
6672;DHT22;3372;48.690;12.362;2022-08-20T12:49:53;20.50;99.90
6672;DHT22;3372;48.690;12.362;2022-08-20T12:52:22;20.70;99.90
6672;DHT22;3372;48.690;12.362;2022-08-20T12:54:48;20.80;99.90
6672;DHT22;3372;48.690;12.362;2022-08-20T12:57:22;20.90;99.90
6672;DHT22;3372;48.690;12.362;2022-08-20T12:59:48;20.90;99.90
6672;DHT22;3372;48.690;12.362;2022-08-20T13:02:14;20.80;99.90
6672;DHT22;3372;48.690;12.362;2022-08-20T13:04:41;20.80;99.70
6672;DHT22;3372;48.690;12.362;2022-08-20T13:07:10;20.90;99.90
6672;DHT22;3372;48.690;12.362;2022-08-20T13:09:36;21.00;99.80
6672;DHT22;3372;48.690;12.362;2022-08-20T13:12:02;21.10;99.20
6672;DHT22;3372;48.690;12.362;2022-08-20T13:14:27;21.20;97.50
6672;DHT22;3372;48.690;12.362;2022-08-20T13:16:57;21.10;97.90
6672;DHT22;3372;48.690;12.362;2022-08-20T13:19:24;21.10;98.60
6672;DHT22;3372;48.690;12.362;2022-08-20T13:21:51;21.10;99.20
6672;DHT22;3372;48.690;12.362;2022-08-20T13:24:16;21.20;98.20
6672;DHT22;3372;48.690;12.362;2022-08-20T13:26:42;21.20;98.30
6672;DHT22;3372;48.690;12.362;2022-08-20T13:29:08;21.10;99.00
6672;DHT22;3372;48.690;12.362;2022-08-20T13:31:33;21.10;98.30
6672;DHT22;3372;48.690;12.362;2022-08-20T13:33:59;21.30;98.70
6672;DHT22;3372;48.690;12.362;2022-08-20T13:36:25;21.30;98.60
6672;DHT22;3372;48.690;12.362;2022-08-20T13:38:50;21.20;98.80
6672;DHT22;3372;48.690;12.362;2022-08-20T13:41:16;21.40;98.20
6672;DHT22;3372;48.690;12.362;2022-08-20T13:43:41;21.40;98.40
6672;DHT22;3372;48.690;12.362;2022-08-20T13:46:07;21.40;98.00
6672;DHT22;3372;48.690;12.362;2022-08-20T13:48:33;21.40;97.60
6672;DHT22;3372;48.690;12.362;2022-08-20T13:50:59;21.30;96.90
6672;DHT22;3372;48.690;12.362;2022-08-20T13:53:25;21.40;97.20
6672;DHT22;3372;48.690;12.362;2022-08-20T13:55:51;21.40;96.10
6672;DHT22;3372;48.690;12.362;2022-08-20T13:58:17;21.40;96.50
6672;DHT22;3372;48.690;12.362;2022-08-20T14:00:43;21.40;96.90
6672;DHT22;3372;48.690;12.362;2022-08-20T14:03:10;21.40;96.20
6672;DHT22;3372;48.690;12.362;2022-08-20T14:05:36;21.20;96.40
6672;DHT22;3372;48.690;12.362;2022-08-20T14:08:22;21.40;96.20
6672;DHT22;3372;48.690;12.362;2022-08-20T14:10:48;21.50;96.30
6672;DHT22;3372;48.690;12.362;2022-08-20T14:13:16;21.40;96.40
6672;DHT22;3372;48.690;12.362;2022-08-20T14:15:43;21.40;96.50
6672;DHT22;3372;48.690;12.362;2022-08-20T14:18:09;21.40;96.70
6672;DHT22;3372;48.690;12.362;2022-08-20T14:20:34;21.30;97.60
6672;DHT22;3372;48.690;12.362;2022-08-20T14:23:01;21.50;96.80
6672;DHT22;3372;48.690;12.362;2022-08-20T14:25:27;21.50;96.60
6672;DHT22;3372;48.690;12.362;2022-08-20T14:27:55;21.50;96.70
6672;DHT22;3372;48.690;12.362;2022-08-20T14:30:24;21.60;96.40
6672;DHT22;3372;48.690;12.362;2022-08-20T14:32:50;21.50;95.60
6672;DHT22;3372;48.690;12.362;2022-08-20T14:35:16;21.60;96.00
6672;DHT22;3372;48.690;12.362;2022-08-20T14:37:46;21.70;95.70
6672;DHT22;3372;48.690;12.362;2022-08-20T14:40:14;21.70;95.00
6672;DHT22;3372;48.690;12.362;2022-08-20T14:42:40;21.70;95.00
6672;DHT22;3372;48.690;12.362;2022-08-20T14:45:08;21.60;95.00
6672;DHT22;3372;48.690;12.362;2022-08-20T14:47:40;21.70;95.00
6672;DHT22;3372;48.690;12.362;2022-08-20T14:50:31;21.70;95.30
6672;DHT22;3372;48.690;12.362;2022-08-20T14:52:58;21.70;95.90
6672;DHT22;3372;48.690;12.362;2022-08-20T14:55:28;21.70;95.10
6672;DHT22;3372;48.690;12.362;2022-08-20T14:57:53;21.70;95.00
6672;DHT22;3372;48.690;12.362;2022-08-20T15:00:26;21.70;94.80
6672;DHT22;3372;48.690;12.362;2022-08-20T15:02:52;21.70;94.70
6672;DHT22;3372;48.690;12.362;2022-08-20T15:05:18;21.70;94.50
6672;DHT22;3372;48.690;12.362;2022-08-20T15:07:47;21.60;96.00
6672;DHT22;3372;48.690;12.362;2022-08-20T15:10:16;21.40;95.60
6672;DHT22;3372;48.690;12.362;2022-08-20T15:12:42;21.50;95.10
6672;DHT22;3372;48.690;12.362;2022-08-20T15:15:10;21.50;95.30
6672;DHT22;3372;48.690;12.362;2022-08-20T15:17:36;21.60;95.30
6672;DHT22;3372;48.690;12.362;2022-08-20T15:20:06;21.70;95.30
6672;DHT22;3372;48.690;12.362;2022-08-20T15:22:37;21.60;95.30
6672;DHT22;3372;48.690;12.362;2022-08-20T15:25:04;21.70;94.70
6672;DHT22;3372;48.690;12.362;2022-08-20T15:27:29;21.50;95.80
6672;DHT22;3372;48.690;12.362;2022-08-20T15:29:55;21.60;95.40
6672;DHT22;3372;48.690;12.362;2022-08-20T15:32:21;21.60;95.60
6672;DHT22;3372;48.690;12.362;2022-08-20T15:34:47;21.40;96.80
6672;DHT22;3372;48.690;12.362;2022-08-20T15:37:20;21.40;97.50
6672;DHT22;3372;48.690;12.362;2022-08-20T15:39:46;21.40;97.20
6672;DHT22;3372;48.690;12.362;2022-08-20T15:42:12;21.40;97.10
6672;DHT22;3372;48.690;12.362;2022-08-20T15:44:39;21.40;97.30
6672;DHT22;3372;48.690;12.362;2022-08-20T15:47:19;21.50;96.80
6672;DHT22;3372;48.690;12.362;2022-08-20T15:49:45;21.60;96.50
6672;DHT22;3372;48.690;12.362;2022-08-20T15:52:11;21.60;95.70
6672;DHT22;3372;48.690;12.362;2022-08-20T15:54:38;21.70;95.70